Time;durP1;ratioP1;P1;durP2;ratioP2;P2;SDS_P1;SDS_P2;PMS_P1;PMS_P2;Temp;Humidity;BMP_temperature;BMP_pressure;BME280_temperature;BME280_humidity;BME280_pressure;Samples;Min_cycle;Max_cycle;Signal;HPM_P1;HPM_P2
2023/01/07 00:00:05;;;;;;;24.17;16.53;;;;;;;11.95;100.00;101470.88;2613124;36;20038;-60
2023/01/07 00:02:33;;;;;;;27.25;17.23;;;;;;;12.01;100.00;101478.44;2614776;36;20034;-59
2023/01/07 00:05:04;;;;;;;24.23;15.55;;;;;;;12.09;100.00;101467.88;2614011;36;20035;-60
2023/01/07 00:07:32;;;;;;;24.85;15.63;;;;;;;12.04;100.00;101472.78;2614476;36;20034;-60
2023/01/07 00:10:01;;;;;;;23.58;15.65;;;;;;;11.96;100.00;101459.09;2615122;36;20034;-60
2023/01/07 00:12:29;;;;;;;24.13;15.13;;;;;;;12.00;100.00;101465.94;2615280;36;20030;-60
2023/01/07 00:14:57;;;;;;;23.95;16.15;;;;;;;11.88;100.00;101465.97;2615743;36;20041;-60
2023/01/07 00:17:26;;;;;;;25.47;16.90;;;;;;;11.82;100.00;101457.53;2615592;36;20055;-60
2023/01/07 00:19:54;;;;;;;26.37;17.40;;;;;;;11.86;100.00;101454.44;2615151;36;20315;-59
2023/01/07 00:22:25;;;;;;;26.02;16.17;;;;;;;11.92;100.00;101447.66;2614919;36;21882;-59
2023/01/07 00:24:53;;;;;;;26.25;17.08;;;;;;;11.95;100.00;101457.38;2615151;36;20042;-60
2023/01/07 00:27:22;;;;;;;27.63;17.48;;;;;;;11.94;100.00;101450.28;2614732;36;20038;-61
2023/01/07 00:29:50;;;;;;;27.63;17.77;;;;;;;11.85;100.00;101452.75;2617516;31;20463;-60
2023/01/07 00:32:19;;;;;;;27.45;16.98;;;;;;;11.84;100.00;101455.56;2614803;36;20045;-61
2023/01/07 00:34:47;;;;;;;27.15;18.05;;;;;;;11.75;100.00;101446.41;2615286;36;20023;-60
2023/01/07 00:40:09;;;;;;;29.38;17.95;;;;;;;11.84;100.00;101434.84;2615259;36;20038;-60
2023/01/07 00:45:18;;;;;;;26.33;17.75;;;;;;;11.79;100.00;101437.06;2614008;36;20026;-60
2023/01/07 00:47:46;;;;;;;26.58;17.20;;;;;;;11.88;100.00;101444.41;2610917;36;20451;-61
2023/01/07 00:50:15;;;;;;;27.00;15.95;;;;;;;11.91;100.00;101441.44;2609183;31;20035;-61
2023/01/07 00:52:43;;;;;;;25.25;17.08;;;;;;;11.87;100.00;101434.59;2610459;36;20073;-60
2023/01/07 00:55:14;;;;;;;23.87;15.80;;;;;;;11.75;100.00;101436.47;2613443;36;20042;-60
2023/01/07 00:57:43;;;;;;;23.75;16.35;;;;;;;11.74;100.00;101421.28;2615465;31;20026;-60
2023/01/07 01:00:15;;;;;;;23.38;14.80;;;;;;;11.71;100.00;101423.38;2614378;36;20023;-60
2023/01/07 01:02:44;;;;;;;24.98;14.95;;;;;;;11.81;100.00;101423.47;2613410;36;20045;-60
2023/01/07 01:05:13;;;;;;;24.98;15.02;;;;;;;11.79;100.00;101425.44;2616233;36;20038;-60
2023/01/07 01:07:41;;;;;;;24.95;16.08;;;;;;;11.77;100.00;101428.25;2616868;31;20027;-60
2023/01/07 01:10:15;;;;;;;22.25;14.75;;;;;;;11.79;100.00;101420.03;2616345;36;20531;-61
2023/01/07 01:12:46;;;;;;;24.55;14.68;;;;;;;11.74;100.00;101423.13;2616594;36;20027;-61
2023/01/07 01:15:16;;;;;;;19.90;13.23;;;;;;;11.83;100.00;101419.63;2615456;36;20498;-60
2023/01/07 01:17:45;;;;;;;21.77;13.65;;;;;;;11.84;100.00;101413.28;2615974;36;20018;-62
2023/01/07 01:20:16;;;;;;;24.27;15.25;;;;;;;11.68;100.00;101415.56;2616327;36;20034;-62
2023/01/07 01:22:45;;;;;;;19.13;12.10;;;;;;;11.65;100.00;101408.59;2616765;36;20022;-61
2023/01/07 01:25:16;;;;;;;20.23;12.55;;;;;;;11.67;100.00;101408.44;2616299;36;20061;-62
2023/01/07 01:27:44;;;;;;;19.30;13.18;;;;;;;11.71;100.00;101412.59;2616581;36;20026;-62
2023/01/07 01:30:13;;;;;;;20.17;12.73;;;;;;;11.72;100.00;101406.25;2616303;31;20023;-61
2023/01/07 01:32:42;;;;;;;19.75;12.20;;;;;;;11.68;100.00;101407.47;2612512;31;20034;-61
2023/01/07 01:35:10;;;;;;;20.43;11.93;;;;;;;11.71;100.00;101404.50;2612709;36;20039;-62
2023/01/07 01:37:39;;;;;;;20.55;11.70;;;;;;;11.85;100.00;101408.72;2612174;36;20031;-61
2023/01/07 01:40:09;;;;;;;16.58;10.55;;;;;;;11.65;100.00;101403.19;2611871;36;20061;-60
2023/01/07 01:42:40;;;;;;;18.85;10.82;;;;;;;11.62;100.00;101410.69;2612266;36;20046;-60
2023/01/07 01:45:09;;;;;;;18.50;11.38;;;;;;;11.52;100.00;101418.69;2611746;36;20424;-62
2023/01/07 01:47:42;;;;;;;19.15;11.65;;;;;;;11.51;100.00;101407.06;2614889;36;20554;-60
2023/01/07 01:50:18;;;;;;;19.85;11.23;;;;;;;11.51;100.00;101407.06;2615237;36;20065;-61
2023/01/07 01:52:54;;;;;;;20.35;11.57;;;;;;;11.55;100.00;101413.03;2616821;36;20025;-60
2023/01/07 01:55:27;;;;;;;18.38;11.52;;;;;;;11.62;100.00;101413.41;2614457;36;20022;-60
2023/01/07 01:58:05;;;;;;;22.20;12.10;;;;;;;11.57;100.00;101416.44;2615209;36;20023;-60
2023/01/07 02:00:34;;;;;;;22.38;10.80;;;;;;;11.54;100.00;101416.72;2616000;36;20609;-60
2023/01/07 02:03:03;;;;;;;20.48;12.05;;;;;;;11.52;100.00;101408.75;2615859;31;20034;-61
2023/01/07 02:05:35;;;;;;;19.27;10.93;;;;;;;11.59;100.00;101409.09;2615614;36;20037;-62
2023/01/07 02:08:04;;;;;;;19.63;11.88;;;;;;;11.46;100.00;101413.81;2615403;36;20455;-62
2023/01/07 02:10:32;;;;;;;19.08;11.95;;;;;;;11.36;100.00;101413.72;2615536;36;20023;-62
2023/01/07 02:13:19;;;;;;;19.83;11.70;;;;;;;11.32;100.00;101405.03;2616558;31;20085;-61
2023/01/07 02:15:55;;;;;;;20.92;11.75;;;;;;;11.32;100.00;101402.34;2616506;36;20561;-61
2023/01/07 02:18:41;;;;;;;19.38;11.43;;;;;;;11.38;100.00;101406.34;2616395;36;20436;-61
2023/01/07 02:21:24;;;;;;;22.67;12.23;;;;;;;11.25;100.00;101397.56;2615390;31;20034;-61
2023/01/07 02:24:26;;;;;;;20.20;12.32;;;;;;;11.28;100.00;101398.19;2614665;31;20428;-61
2023/01/07 02:27:10;;;;;;;20.60;12.20;;;;;;;11.27;100.00;101387.53;2615164;36;20069;-59
2023/01/07 02:30:15;;;;;;;19.10;11.68;;;;;;;11.24;100.00;101385.94;2613292;36;20041;-61
2023/01/07 02:33:24;;;;;;;19.48;12.02;;;;;;;11.18;100.00;101390.00;2608525;36;20049;-60
2023/01/07 02:36:15;;;;;;;19.73;11.63;;;;;;;11.13;100.00;101389.53;2615181;36;20043;-59
2023/01/07 02:38:59;;;;;;;21.52;12.30;;;;;;;11.22;100.00;101388.78;2615104;31;20038;-60
2023/01/07 02:41:41;;;;;;;21.90;13.18;;;;;;;11.18;100.00;101389.16;2615836;36;20041;-59
2023/01/07 02:44:18;;;;;;;19.90;11.98;;;;;;;11.13;100.00;101386.84;2614176;31;20046;-59
2023/01/07 02:46:52;;;;;;;23.20;11.75;;;;;;;11.13;100.00;101378.78;2615223;36;20448;-59
2023/01/07 02:49:24;;;;;;;21.13;11.50;;;;;;;11.15;100.00;101379.50;2614836;36;20039;-59
2023/01/07 02:51:53;;;;;;;22.10;12.18;;;;;;;11.09;100.00;101374.63;2615735;36;20030;-59
2023/01/07 02:54:25;;;;;;;21.10;11.40;;;;;;;11.11;100.00;101371.78;2616517;36;20130;-59
2023/01/07 02:57:10;;;;;;;22.40;12.45;;;;;;;11.10;100.00;101376.34;2614851;36;20030;-60
2023/01/07 02:59:59;;;;;;;21.52;12.65;;;;;;;11.17;100.00;101369.47;2615972;36;20038;-59
2023/01/07 03:02:52;;;;;;;20.47;11.13;;;;;;;11.16;100.00;101364.16;2615709;36;20542;-59
2023/01/07 03:05:43;;;;;;;18.58;11.70;;;;;;;11.11;100.00;101367.25;2615642;31;20022;-59
2023/01/07 03:08:29;;;;;;;19.45;11.80;;;;;;;11.02;100.00;101355.41;2614787;31;20419;-60
2023/01/07 03:11:01;;;;;;;21.35;11.65;;;;;;;11.02;100.00;101349.16;2616428;36;20031;-59
2023/01/07 03:13:34;;;;;;;21.40;12.05;;;;;;;10.96;100.00;101357.75;2616078;36;20038;-59
2023/01/07 03:16:07;;;;;;;22.48;12.20;;;;;;;10.92;100.00;101350.91;2616629;36;20546;-59
2023/01/07 03:18:41;;;;;;;22.42;11.27;;;;;;;10.98;100.00;101350.41;2616051;36;20023;-60
2023/01/07 03:21:16;;;;;;;18.63;11.48;;;;;;;11.01;100.00;101340.25;2616809;31;20026;-60
2023/01/07 03:23:50;;;;;;;20.05;12.20;;;;;;;11.00;100.00;101343.06;2617004;36;20022;-61
2023/01/07 03:26:21;;;;;;;19.30;11.07;;;;;;;10.89;100.00;101345.78;2617384;36;20419;-60
2023/01/07 03:28:53;;;;;;;18.08;10.38;;;;;;;10.86;100.00;101342.38;2616210;36;20567;-60
2023/01/07 03:31:23;;;;;;;17.33;11.15;;;;;;;10.81;100.00;101344.56;2615840;36;20051;-61
2023/01/07 03:33:55;;;;;;;20.15;11.13;;;;;;;10.92;100.00;101335.59;2616551;36;20030;-61
2023/01/07 03:36:32;;;;;;;18.50;10.27;;;;;;;10.89;100.00;101341.22;2616013;36;20502;-60
2023/01/07 03:39:01;;;;;;;18.48;10.00;;;;;;;10.89;100.00;101332.31;2615893;36;20029;-61
2023/01/07 03:44:10;;;;;;;17.30;9.60;;;;;;;10.82;100.00;101334.63;2616933;36;19950;-60
2023/01/07 03:46:40;;;;;;;21.27;9.70;;;;;;;10.90;100.00;101336.72;2617211;36;20482;-60
2023/01/07 03:49:08;;;;;;;;;;;;;;;10.79;100.00;101332.19;2615941;36;20034;-60
2023/01/07 03:51:38;;;;;;;16.65;9.95;;;;;;;10.89;100.00;101325.06;2616302;36;19951;-61
2023/01/07 03:54:07;;;;;;;17.55;9.45;;;;;;;10.98;100.00;101320.75;2617002;31;20053;-60
2023/01/07 03:56:35;;;;;;;14.15;9.15;;;;;;;10.95;100.00;101323.72;2616802;36;20034;-60
2023/01/07 03:59:04;;;;;;;16.03;8.80;;;;;;;10.93;100.00;101309.53;2616728;31;20031;-60
2023/01/07 04:01:32;;;;;;;14.35;9.20;;;;;;;10.87;100.00;101306.34;2616209;36;20031;-59
2023/01/07 04:04:01;;;;;;;13.38;8.77;;;;;;;10.90;100.00;101317.88;2616788;36;20030;-60
2023/01/07 04:06:29;;;;;;;17.05;8.93;;;;;;;10.86;100.00;101307.34;2615911;36;20038;-59
2023/01/07 04:09:00;;;;;;;14.88;8.43;;;;;;;10.77;100.00;101305.41;2617076;31;20555;-61
2023/01/07 04:11:28;;;;;;;15.20;9.43;;;;;;;10.81;100.00;101314.94;2615940;36;20035;-60
2023/01/07 04:13:59;;;;;;;17.83;9.68;;;;;;;10.78;100.00;101314.34;2616908;36;20094;-60
2023/01/07 04:16:27;;;;;;;15.05;8.35;;;;;;;10.81;100.00;101314.94;2615594;31;20435;-60
2023/01/07 04:18:56;;;;;;;12.60;7.87;;;;;;;10.84;100.00;101312.00;2616574;36;20029;-60
2023/01/07 04:21:24;;;;;;;14.73;8.70;;;;;;;10.82;100.00;101300.50;2616247;36;20578;-60
2023/01/07 04:23:52;;;;;;;14.13;8.35;;;;;;;10.87;100.00;101294.75;2617179;36;20035;-60
2023/01/07 04:26:23;;;;;;;14.10;8.57;;;;;;;10.86;100.00;101298.41;2616199;36;20023;-61
2023/01/07 04:28:51;;;;;;;19.10;9.60;;;;;;;10.84;100.00;101285.06;2616876;31;20030;-61
2023/01/07 04:31:20;;;;;;;14.30;8.18;;;;;;;10.98;100.00;101283.06;2615564;36;20424;-60
2023/01/07 04:33:48;;;;;;;14.52;7.85;;;;;;;10.95;100.00;101296.78;2615460;36;20029;-60
2023/01/07 04:36:17;;;;;;;12.77;8.10;;;;;;;11.03;100.00;101288.94;2616122;36;20041;-61
2023/01/07 04:38:45;;;;;;;15.53;8.10;;;;;;;10.99;100.00;101288.31;2616848;31;20023;-60
2023/01/07 04:41:13;;;;;;;16.48;8.77;;;;;;;10.99;100.00;101282.09;2616376;36;20023;-60
2023/01/07 04:43:44;;;;;;;14.88;7.90;;;;;;;10.85;100.00;101269.75;2615590;31;20023;-59
2023/01/07 04:46:12;;;;;;;15.15;8.50;;;;;;;10.87;100.00;101268.66;2616144;31;20022;-61
2023/01/07 04:48:41;;;;;;;12.77;8.30;;;;;;;10.69;100.00;101270.19;2615828;36;20042;-61
2023/01/07 04:51:09;;;;;;;12.63;7.20;;;;;;;10.74;100.00;101276.03;2616830;36;20428;-59
2023/01/07 04:53:37;;;;;;;10.65;7.55;;;;;;;10.85;100.00;101276.00;2615925;36;20038;-60
2023/01/07 04:56:07;;;;;;;13.77;7.65;;;;;;;10.78;100.00;101277.50;2615915;36;20034;-61
2023/01/07 04:58:35;;;;;;;;;;;;;;;10.84;100.00;101273.44;2614530;36;20039;-60
2023/01/07 05:01:07;;;;;;;16.92;7.93;;;;;;;10.84;100.00;101277.00;2614702;31;19939;-60
2023/01/07 05:03:35;;;;;;;11.82;7.72;;;;;;;10.79;100.00;101271.16;2616464;36;20042;-59
2023/01/07 05:06:04;;;;;;;12.87;7.60;;;;;;;10.80;100.00;101272.00;2616118;31;20110;-60
2023/01/07 05:08:33;;;;;;;12.43;7.18;;;;;;;10.86;100.00;101266.97;2617270;31;20682;-60
2023/01/07 05:11:03;;;;;;;12.35;7.28;;;;;;;10.89;100.00;101264.97;2616057;36;20027;-59
2023/01/07 05:13:34;;;;;;;11.68;7.32;;;;;;;10.78;100.00;101266.72;2616474;36;20026;-59
2023/01/07 05:16:02;;;;;;;12.27;6.80;;;;;;;10.95;100.00;101253.69;2615466;36;20030;-59
2023/01/07 05:18:34;;;;;;;14.30;7.35;;;;;;;10.83;100.00;101255.56;2616048;31;20613;-60
2023/01/07 05:21:02;;;;;;;14.27;7.68;;;;;;;10.84;100.00;101246.53;2617013;31;20031;-61
2023/01/07 05:23:30;;;;;;;13.77;7.37;;;;;;;10.74;100.00;101246.44;2616512;36;20065;-60
2023/01/07 05:25:59;;;;;;;10.02;6.88;;;;;;;10.67;100.00;101247.91;2616566;36;20031;-60
2023/01/07 05:28:27;;;;;;;12.35;7.75;;;;;;;10.62;100.00;101247.47;2617109;36;20397;-60
2023/01/07 05:30:56;;;;;;;15.93;7.57;;;;;;;10.59;100.00;101250.41;2616493;36;20035;-61
2023/01/07 05:33:24;;;;;;;12.25;6.55;;;;;;;10.55;100.00;101244.41;2616218;36;20030;-59
2023/01/07 05:35:55;;;;;;;12.05;7.47;;;;;;;10.66;100.00;101239.00;2616723;36;20065;-60
2023/01/07 05:38:23;;;;;;;9.90;6.75;;;;;;;10.65;100.00;101239.13;2615778;36;20511;-60
2023/01/07 05:40:52;;;;;;;13.63;7.20;;;;;;;10.68;100.00;101236.16;2616300;31;20038;-61
2023/01/07 05:43:20;;;;;;;14.07;7.43;;;;;;;10.57;100.00;101239.78;2616713;36;20034;-60
2023/01/07 05:45:49;;;;;;;12.15;7.25;;;;;;;10.69;100.00;101229.81;2617000;36;20409;-61
2023/01/07 05:48:17;;;;;;;12.43;7.82;;;;;;;10.62;100.00;101229.47;2616836;31;20038;-60
2023/01/07 05:50:45;;;;;;;12.50;6.80;;;;;;;10.59;100.00;101226.19;2616502;36;20049;-60
2023/01/07 05:53:16;;;;;;;13.83;6.87;;;;;;;10.69;100.00;101224.44;2616767;36;20034;-60
2023/01/07 05:55:45;;;;;;;11.60;6.15;;;;;;;10.73;100.00;101223.16;2616478;36;20038;-61
2023/01/07 05:58:13;;;;;;;13.13;7.47;;;;;;;10.57;100.00;101229.00;2616410;36;20030;-60
2023/01/07 06:00:41;;;;;;;9.60;6.37;;;;;;;10.59;100.00;101227.03;2616120;36;20034;-60
2023/01/07 06:03:10;;;;;;;12.48;7.18;;;;;;;10.50;100.00;101227.78;2616791;36;20419;-60
2023/01/07 06:05:38;;;;;;;9.10;6.55;;;;;;;10.42;100.00;101231.09;2616491;36;20033;-60
2023/01/07 06:08:07;;;;;;;12.88;7.22;;;;;;;10.54;100.00;101223.00;2616369;36;20039;-60
2023/01/07 06:10:38;;;;;;;13.20;6.53;;;;;;;10.59;100.00;101223.50;2616587;36;20030;-61
2023/01/07 06:13:06;;;;;;;13.43;7.30;;;;;;;10.56;100.00;101227.28;2616819;36;20042;-60
2023/01/07 06:15:35;;;;;;;10.75;7.25;;;;;;;10.67;100.00;101216.50;2616866;36;20061;-60
2023/01/07 06:18:03;;;;;;;11.30;7.20;;;;;;;10.57;100.00;101218.22;2616235;36;20042;-60
2023/01/07 06:20:33;;;;;;;10.65;6.88;;;;;;;10.52;100.00;101217.75;2616928;36;20034;-60
2023/01/07 06:23:01;;;;;;;10.88;6.82;;;;;;;10.52;100.00;101212.38;2616645;36;20023;-61
2023/01/07 06:25:30;;;;;;;14.77;6.45;;;;;;;10.50;100.00;101196.34;2616615;36;20034;-60
2023/01/07 06:28:01;;;;;;;11.30;6.43;;;;;;;10.46;100.00;101200.25;2615551;36;20023;-59
2023/01/07 06:30:29;;;;;;;9.23;6.40;;;;;;;10.55;100.00;101192.41;2616149;36;20404;-60
2023/01/07 06:32:58;;;;;;;11.02;6.53;;;;;;;10.54;100.00;101188.00;2616288;36;20038;-59
2023/01/07 06:35:26;;;;;;;11.73;6.53;;;;;;;10.68;100.00;101179.63;2616520;36;20531;-60
2023/01/07 06:37:55;;;;;;;12.95;6.65;;;;;;;10.65;100.00;101183.44;2616728;36;20287;-60
2023/01/07 06:40:23;;;;;;;10.45;5.97;;;;;;;10.67;100.00;101194.94;2616057;36;20038;-60
2023/01/07 06:42:51;;;;;;;8.95;6.03;;;;;;;10.71;100.00;101184.75;2616489;36;20042;-59
2023/01/07 06:45:22;;;;;;;8.40;5.97;;;;;;;10.63;100.00;101181.84;2615450;31;20041;-60
2023/01/07 06:47:51;;;;;;;9.63;5.90;;;;;;;10.59;100.00;101175.03;2616682;31;20882;-59
2023/01/07 06:50:19;;;;;;;11.67;6.27;;;;;;;10.66;100.00;101173.53;2617332;31;20451;-60
2023/01/07 06:52:47;;;;;;;8.48;5.43;;;;;;;10.66;100.00;101170.84;2616440;31;20034;-59
2023/01/07 06:55:16;;;;;;;9.35;4.88;;;;;;;10.66;100.00;101163.63;2615999;31;20579;-60
2023/01/07 06:57:44;;;;;;;9.70;5.93;;;;;;;10.62;100.00;101161.31;2616509;36;20035;-60
2023/01/07 07:00:14;;;;;;;9.10;4.53;;;;;;;10.60;100.00;101164.13;2615627;31;20422;-60
2023/01/07 07:02:45;;;;;;;6.47;4.65;;;;;;;10.63;100.00;101154.94;2616323;36;20026;-59
2023/01/07 07:05:13;;;;;;;7.80;4.82;;;;;;;10.78;100.00;101150.13;2616862;36;20579;-60
2023/01/07 07:07:42;;;;;;;6.35;4.47;;;;;;;10.85;100.00;101144.06;2616857;36;20563;-60
2023/01/07 07:10:11;;;;;;;8.50;5.00;;;;;;;10.79;100.00;101136.53;2616482;36;20031;-60
2023/01/07 07:12:40;;;;;;;;;;;;;;;10.67;100.00;101126.78;2616073;36;20041;-60
2023/01/07 07:15:10;;;;;;;6.45;4.43;;;;;;;10.58;100.00;101127.56;2616284;36;19957;-60
2023/01/07 07:17:38;;;;;;;8.57;4.07;;;;;;;10.72;100.00;101124.56;2616947;36;20555;-60
2023/01/07 07:20:11;;;;;;;7.38;3.85;;;;;;;10.65;100.00;101118.00;2616516;31;20041;-60
2023/01/07 07:22:39;;;;;;;8.82;4.10;;;;;;;10.70;100.00;101123.81;2617344;36;20106;-60
2023/01/07 07:25:08;;;;;;;5.32;3.67;;;;;;;10.68;100.00;101131.19;2616913;36;20045;-60
2023/01/07 07:27:36;;;;;;;6.15;3.80;;;;;;;10.66;100.00;101134.00;2617131;31;20034;-59
2023/01/07 07:30:06;;;;;;;5.60;3.80;;;;;;;10.68;100.00;101125.81;2616553;36;20030;-59
2023/01/07 07:32:35;;;;;;;5.38;3.50;;;;;;;10.62;100.00;101135.25;2616907;36;20122;-59
2023/01/07 07:35:03;;;;;;;6.05;3.78;;;;;;;10.51;100.00;101117.31;2616301;36;20029;-60
2023/01/07 07:37:35;;;;;;;6.13;3.30;;;;;;;10.49;100.00;101124.66;2617087;36;20204;-59
2023/01/07 07:40:04;;;;;;;5.47;3.30;;;;;;;10.50;100.00;101128.22;2615322;36;20146;-60
2023/01/07 07:42:32;;;;;;;6.77;3.77;;;;;;;10.45;100.00;101108.91;2616270;31;20030;-60
2023/01/07 07:45:00;;;;;;;6.40;3.55;;;;;;;10.54;100.00;101116.22;2615751;36;20292;-59
2023/01/07 07:47:28;;;;;;;5.00;2.73;;;;;;;10.48;100.00;101109.50;2616321;36;20039;-59
2023/01/07 07:49:57;;;;;;;5.35;3.17;;;;;;;10.56;100.00;101108.00;2616040;36;20034;-60
2023/01/07 07:52:25;;;;;;;4.95;2.88;;;;;;;10.48;100.00;101117.59;2616572;36;20034;-61
2023/01/07 07:54:56;;;;;;;5.47;3.08;;;;;;;10.46;100.00;101114.16;2615898;36;20022;-61
2023/01/07 07:57:24;;;;;;;4.50;2.60;;;;;;;10.40;100.00;101109.28;2615824;36;20038;-60
2023/01/07 07:59:59;;;;;;;5.28;2.95;;;;;;;10.35;100.00;101111.53;2615250;36;20045;-60
2023/01/07 08:02:27;;;;;;;4.10;2.70;;;;;;;10.35;100.00;101103.47;2615384;36;20030;-60
2023/01/07 08:04:55;;;;;;;4.97;3.10;;;;;;;10.37;100.00;101114.09;2616148;36;20030;-61
2023/01/07 08:07:24;;;;;;;5.30;2.63;;;;;;;10.41;100.00;101105.63;2616708;36;20035;-60
2023/01/07 08:09:52;;;;;;;6.93;2.78;;;;;;;10.40;100.00;101114.66;2615219;36;20045;-60
2023/01/07 08:12:23;;;;;;;4.32;2.97;;;;;;;10.34;100.00;101107.13;2615171;36;20027;-60
2023/01/07 08:14:51;;;;;;;4.40;2.80;;;;;;;10.28;100.00;101111.13;2616612;31;20428;-60
2023/01/07 08:17:20;;;;;;;4.90;2.75;;;;;;;10.31;100.00;101110.03;2616537;36;20035;-60
2023/01/07 08:19:48;;;;;;;5.70;3.07;;;;;;;10.34;100.00;101113.34;2616721;36;20034;-61
2023/01/07 08:22:16;;;;;;;5.93;2.50;;;;;;;10.39;100.00;101115.66;2616257;31;20030;-60
2023/01/07 08:24:45;;;;;;;3.53;2.40;;;;;;;10.54;100.00;101109.97;2617298;31;20022;-59
2023/01/07 08:27:13;;;;;;;4.00;2.40;;;;;;;10.59;100.00;101107.75;2617020;36;20037;-59
2023/01/07 08:29:44;;;;;;;3.83;2.55;;;;;;;10.54;100.00;101094.69;2615860;36;20023;-59
2023/01/07 08:32:15;;;;;;;3.85;2.42;;;;;;;10.53;100.00;101098.34;2615247;36;20511;-59
2023/01/07 08:34:43;;;;;;;3.90;2.38;;;;;;;10.57;100.00;101094.44;2615378;36;20034;-59
2023/01/07 08:37:12;;;;;;;6.10;2.73;;;;;;;10.79;100.00;101081.78;2616884;36;20034;-60
2023/01/07 08:39:40;;;;;;;5.15;2.60;;;;;;;10.70;100.00;101080.75;2616971;36;20045;-59
2023/01/07 08:42:09;;;;;;;4.80;2.30;;;;;;;10.80;100.00;101081.66;2616799;36;20038;-59
2023/01/07 08:44:37;;;;;;;5.20;2.60;;;;;;;10.73;100.00;101079.63;2616710;36;20034;-59
2023/01/07 08:47:08;;;;;;;3.20;2.17;;;;;;;10.69;100.00;101079.06;2614848;36;20042;-60
2023/01/07 08:49:36;;;;;;;3.22;2.10;;;;;;;10.87;100.00;101084.69;2616714;36;20023;-59
2023/01/07 08:52:05;;;;;;;4.13;2.10;;;;;;;10.87;100.00;101073.94;2615915;36;20049;-61
2023/01/07 08:54:34;;;;;;;3.38;2.20;;;;;;;10.93;100.00;101061.78;2617451;36;20068;-62
2023/01/07 08:57:08;;;;;;;4.07;2.40;;;;;;;10.98;100.00;101063.09;2616500;39;20419;-61
2023/01/07 08:59:39;;;;;;;4.65;2.30;;;;;;;10.80;100.00;101075.44;2616522;31;20421;-58
2023/01/07 09:02:14;;;;;;;6.03;1.92;;;;;;;11.03;100.00;101051.91;2615947;36;20125;-58
2023/01/07 09:04:43;;;;;;;2.55;1.67;;;;;;;11.03;100.00;101059.97;2616379;36;20027;-58
2023/01/07 09:07:12;;;;;;;3.58;2.10;;;;;;;11.10;100.00;101066.53;2616148;36;20041;-61
2023/01/07 09:09:41;;;;;;;2.90;2.15;;;;;;;11.15;100.00;101061.59;2616415;36;20027;-59
2023/01/07 09:12:10;;;;;;;3.08;1.95;;;;;;;11.12;100.00;101055.63;2616419;36;20023;-60
2023/01/07 09:14:39;;;;;;;6.55;1.73;;;;;;;11.11;100.00;101062.84;2616332;31;20038;-59
2023/01/07 09:17:09;;;;;;;2.88;1.63;;;;;;;11.03;100.00;101046.53;2616394;36;20030;-58
2023/01/07 09:19:38;;;;;;;2.42;1.60;;;;;;;11.05;100.00;101060.69;2616235;36;20035;-59
2023/01/07 09:22:06;;;;;;;2.85;1.73;;;;;;;11.10;100.00;101053.06;2616556;36;20034;-60
2023/01/07 09:24:35;;;;;;;3.53;1.90;;;;;;;11.15;100.00;101045.44;2616658;31;20023;-59
2023/01/07 09:27:03;;;;;;;2.33;1.60;;;;;;;11.08;100.00;101046.94;2616746;31;20065;-59
2023/01/07 09:29:32;;;;;;;3.47;2.00;;;;;;;10.98;100.00;101032.59;2616263;36;20290;-60
2023/01/07 09:32:00;;;;;;;2.40;1.80;;;;;;;10.94;100.00;101036.53;2616554;36;20022;-60
2023/01/07 09:34:31;;;;;;;7.22;1.77;;;;;;;10.97;100.00;101031.75;2616093;36;20034;-58
2023/01/07 09:36:59;;;;;;;4.22;1.92;;;;;;;11.05;100.00;101033.75;2616729;36;20030;-61
2023/01/07 09:39:27;;;;;;;2.33;1.65;;;;;;;11.13;100.00;101027.69;2616257;36;20030;-59
2023/01/07 09:42:03;;;;;;;2.30;1.60;;;;;;;11.12;100.00;101028.69;2616683;36;20042;-59
2023/01/07 09:44:48;;;;;;;4.30;1.67;;;;;;;11.14;100.00;101026.69;2615999;36;20045;-60
2023/01/07 09:47:20;;;;;;;2.13;1.50;;;;;;;11.28;100.00;101033.53;2616348;36;20034;-61
2023/01/07 09:50:00;;;;;;;2.78;1.70;;;;;;;11.32;100.00;101029.59;2616373;36;20030;-61
2023/01/07 09:52:34;;;;;;;3.20;1.90;;;;;;;11.26;100.00;101025.59;2616650;36;20034;-60
2023/01/07 09:55:09;;;;;;;2.97;1.55;;;;;;;11.30;100.00;101023.50;2616513;36;20031;-62
2023/01/07 09:57:37;;;;;;;2.63;1.70;;;;;;;11.31;100.00;101027.91;2616657;36;20022;-59
2023/01/07 10:00:16;;;;;;;2.43;1.50;;;;;;;11.34;100.00;101022.25;2615928;36;20034;-60
2023/01/07 10:02:58;;;;;;;4.22;1.60;;;;;;;11.36;100.00;101014.88;2616318;36;20044;-60
2023/01/07 10:05:40;;;;;;;2.40;1.50;;;;;;;11.24;100.00;101015.97;2615223;36;20039;-60
2023/01/07 10:08:24;;;;;;;2.60;1.60;;;;;;;11.25;100.00;101010.44;2615151;36;20049;-60
2023/01/07 10:10:57;;;;;;;3.00;1.75;;;;;;;11.28;100.00;101001.22;2616489;36;20034;-60
2023/01/07 10:13:53;;;;;;;2.10;1.60;;;;;;;11.35;100.00;101000.56;2616456;31;20030;-60
2023/01/07 10:16:28;;;;;;;2.08;1.50;;;;;;;11.27;100.00;100994.16;2614506;31;20041;-60
2023/01/07 10:19:05;;;;;;;2.80;1.73;;;;;;;11.36;100.00;100993.31;2614519;31;20037;-60
2023/01/07 10:21:44;;;;;;;2.10;1.40;;;;;;;11.47;100.00;100990.50;2616043;36;20046;-59
2023/01/07 10:24:20;;;;;;;3.60;1.70;;;;;;;11.28;100.00;100980.53;2614206;31;20098;-60
2023/01/07 10:26:51;;;;;;;2.38;1.40;;;;;;;11.33;100.00;100969.34;2616020;36;20034;-60
2023/01/07 10:29:27;;;;;;;3.45;1.50;;;;;;;11.32;100.00;100970.31;2616673;36;20491;-60
2023/01/07 10:31:58;;;;;;;2.53;1.70;;;;;;;11.33;100.00;100961.25;2615590;36;20022;-59
2023/01/07 10:34:32;;;;;;;2.83;1.70;;;;;;;11.34;100.00;100960.28;2614951;31;20037;-60
2023/01/07 10:37:08;;;;;;;3.45;2.00;;;;;;;11.44;100.00;100954.88;2615985;36;20045;-60
2023/01/07 10:39:48;;;;;;;3.83;1.92;;;;;;;11.58;100.00;100938.31;2615904;36;20033;-59
2023/01/07 10:42:23;;;;;;;6.47;2.25;;;;;;;11.62;100.00;100931.66;2615390;36;20049;-59
2023/01/07 10:45:26;;;;;;;3.85;1.90;;;;;;;11.49;100.00;100933.75;2616105;36;20034;-60
2023/01/07 10:48:12;;;;;;;3.22;1.98;;;;;;;11.44;100.00;100925.22;2615460;36;20548;-59
2023/01/07 10:50:55;;;;;;;2.90;1.83;;;;;;;11.48;100.00;100916.72;2616231;31;20170;-60
2023/01/07 10:53:36;;;;;;;4.45;1.73;;;;;;;11.62;100.00;100920.03;2615519;54;20023;-60
2023/01/07 10:56:15;;;;;;;4.68;2.50;;;;;;;11.65;100.00;100911.66;2613656;31;20041;-61
2023/01/07 10:58:45;;;;;;;2.60;1.73;;;;;;;11.66;100.00;100902.53;2615161;36;20681;-60
2023/01/07 11:01:21;;;;;;;3.05;2.08;;;;;;;11.55;100.00;100896.31;2615279;36;20038;-60
2023/01/07 11:03:51;;;;;;;4.30;1.67;;;;;;;11.68;100.00;100901.41;2615388;31;20038;-60
2023/01/07 11:06:26;;;;;;;3.53;2.00;;;;;;;11.48;100.00;100897.84;2616229;31;20062;-60
2023/01/07 11:08:57;;;;;;;2.03;1.80;;;;;;;11.65;100.00;100887.38;2615744;36;20026;-60
2023/01/07 11:11:26;;;;;;;3.20;1.70;;;;;;;11.60;100.00;100876.16;2614815;36;20590;-59
2023/01/07 11:14:01;;;;;;;8.85;1.80;;;;;;;11.40;100.00;100871.63;2614634;36;20029;-60
2023/01/07 11:16:33;;;;;;;2.65;1.50;;;;;;;11.39;100.00;100855.59;2615628;54;20041;-59
2023/01/07 11:19:05;;;;;;;2.90;1.65;;;;;;;11.46;100.00;100859.41;2615360;36;20385;-62
2023/01/07 11:21:36;;;;;;;3.08;1.60;;;;;;;11.44;100.00;100841.69;2614309;36;20030;-60
2023/01/07 11:24:29;;;;;;;5.43;1.73;;;;;;;11.38;100.00;100835.00;2613052;36;20053;-60
2023/01/07 11:27:03;;;;;;;2.33;1.58;;;;;;;11.56;100.00;100822.53;2614554;36;20044;-61
2023/01/07 11:29:37;;;;;;;2.03;1.40;;;;;;;11.45;100.00;100836.16;2614859;36;20026;-59
2023/01/07 11:32:07;;;;;;;1.92;1.33;;;;;;;11.39;100.00;100826.81;2614848;31;20038;-59
2023/01/07 11:34:39;;;;;;;2.08;1.40;;;;;;;11.39;100.00;100816.03;2616027;36;20042;-59
2023/01/07 11:37:07;;;;;;;2.92;1.30;;;;;;;11.38;100.00;100813.47;2616497;36;20037;-59
2023/01/07 11:39:38;;;;;;;2.63;1.50;;;;;;;11.43;100.00;100811.19;2614054;36;20036;-59